Sand Spring Valley, Nevada Weather observations

Data are for 10 minute period ending at time listed.
 Day   Time   Solar   Ave.   Ave.  Ave.  Vector  Max.   Baro.   Total    
  of    of     Rad.   Air    Rel.  Wind   Wind   Wind  Press.  Precip.   
Year   Day            Temp.  Hum.  Speed  Dir.   Gust                    
2015   (PST)  Kw/m2    F      %     mph   deg.    mph    mb.     in.     
-------------------------------------------------------------------------
 115   14:00   0.00   42.1    76    9.0   285    13.7   844.5    0.00 
 115   14:10   0.00   42.9    76    8.3   272    12.8   844.2    0.00 
 115   14:20   0.00   44.0    72    5.4   239     9.1   843.8    0.00 
 115   14:30   0.00   45.3    69    5.6   238    11.8   843.3    0.00 
 115   14:40   0.00   46.6    63    6.1   236     9.5   842.9    0.00 
 115   14:50   0.00   47.4    60    8.0   235    13.2   842.6    0.00 
 115   15:00   0.00   48.3    59    7.8   263    15.3   842.6    0.00 
 115   15:10   0.00   49.0    57   11.6   258    18.0   842.6    0.00 
 115   15:20   0.00   50.4    52   12.1   281    16.9   842.6    0.00 
 115   15:30   0.00   51.1    50   11.8   282    19.5   842.5    0.00 
 115   15:40   0.00   51.7    50   13.8   285    21.8   842.5    0.00 
 115   15:50   0.00   50.9    50   14.3   287    20.0   842.4    0.00 
 115   16:00   0.00   51.5    48   15.4   288    21.2   842.3    0.00 
 115   16:10   0.00   52.5    48   12.1   305    19.4   842.3    0.00 
 115   16:20   0.00   51.1    48   11.4   288    16.1   842.4    0.00 
 115   16:30   0.00   51.0    48   11.8   303    17.5   842.4    0.00 
 115   16:40   0.00   51.5    49    9.7   340    15.7   842.5    0.00 
 115   16:50   0.00   50.8    52    8.3    46    11.0   842.6    0.00 
 115   17:00   0.00   50.1    55    8.7    46    11.8   842.7    0.00 
 115   17:10   0.00   50.1    55    8.3    28    11.9   842.7    0.00 
 115   17:20   0.00   49.7    56    7.5    23    11.2   842.9    0.00 
 115   17:30   0.00   49.4    56    7.4    19    10.3   843.0    0.00 
 115   17:40   0.00   49.1    58    6.4    10    10.3   843.3    0.00 
 115   17:50   0.00   48.2    65    4.8   337     6.5   843.4    0.00 
 115   18:00   0.00   46.9    69    7.9   316    13.0   843.6    0.00 
 115   18:10   0.00   46.4    69   11.8   343    16.7   843.8    0.00 
 115   18:20   0.00   45.9    68    9.5   356    16.1   844.1    0.00 
 115   18:30   0.00   45.4    70    8.3   338    13.1   844.4    0.00 
 115   18:40   0.00   43.9    74   14.7   317    20.5   844.5    0.00 
 115   18:50   0.00   43.3    74   13.7   325    19.7   844.7    0.00 
 115   19:00   0.00   43.2    76    9.0   319    14.0   844.9    0.00 
 115   19:10   0.00   42.6    79   11.0   289    15.8   844.9    0.00 
 115   19:20   0.00   41.9    81   11.0   285    15.7   845.0    0.00 
 115   19:30   0.00   41.8    80   12.6   293    18.7   845.1    0.00 
 115   19:40   0.00   41.8    79   12.7   291    17.7   845.1    0.00 
 115   19:50   0.00   42.0    77   12.5   292    16.1   845.1    0.00 
 115   20:00   0.00   41.9    77   10.4   292    15.7   845.2    0.00 
 115   20:10   0.00   41.5    78    9.9   290    13.2   845.4    0.00 
 115   20:20   0.00   41.4    78   10.1   296    13.7   845.6    0.00 
 115   20:30   0.00   41.1    78    9.4   299    13.1   845.6    0.00 
 115   20:40   0.00   40.7    78    8.4   298    11.3   845.8    0.00 
 115   20:50   0.00   39.9    79    7.2   299     9.1   845.9    0.00 
 115   21:00   0.00   39.3    80    7.9   298    10.1   846.0    0.00 
 115   21:10   0.00   38.8    80    8.5   293    11.0   846.1    0.00 
 115   21:20   0.00   38.2    82    7.7   292    10.4   846.3    0.00 
 115   21:30   0.00   37.6    83    6.8   293     8.4   846.4    0.00 
 115   21:40   0.00   37.2    84    6.3   287     8.0   846.4    0.00 
 115   21:50   0.00   37.2    84    5.7   294     7.1   846.5    0.00 
 115   22:00   0.00   38.3    82    5.9   308     8.1   846.7    0.00 
 115   22:10   0.00   38.1    80    4.8   311     6.9   846.8    0.00 
 115   22:20   0.00   38.4    78    6.5   316     8.8   846.8    0.00 
 115   22:30   0.00   38.6    77    6.6   318     9.1   846.9    0.00 
 115   22:40   0.00   37.5    80    6.9   289    10.0   847.0    0.00 
 115   22:50   0.00   37.6    82    9.0   285    11.5   847.1    0.00 
 115   23:00   0.00   37.4    82    9.1   288    12.3   847.2    0.00 
 115   23:10   0.00   36.8    83    8.2   279    11.5   847.2    0.00 
 115   23:20   0.00   36.0    83    7.0   273     9.0   847.2    0.00 
 115   23:30   0.00   35.8    83    7.1   280    10.0   847.2    0.00 
 115   23:40   0.00   36.1    82    9.1   289    14.0   847.2    0.00 
 115   23:50   0.00   36.8    79   10.8   293    14.5   847.3    0.00 
 116    0:00   100.00  99999.0   99999  99999.0   99999   99999.0   99999.0   99999.00 
 116    0:10   100.00  99999.0   99999  99999.0   99999   99999.0   99999.0   99999.00 
 116    0:20   100.00  99999.0   99999  99999.0   99999   99999.0   99999.0   99999.00 
 116    0:30   100.00  99999.0   99999  99999.0   99999   99999.0   99999.0   99999.00 
 116    0:40   100.00  99999.0   99999  99999.0   99999   99999.0   99999.0   99999.00 
 116    0:50   100.00  99999.0   99999  99999.0   99999   99999.0   99999.0   99999.00 
 116    1:00   100.00  99999.0   99999  99999.0   99999   99999.0   99999.0   99999.00 
 116    1:10   100.00  99999.0   99999  99999.0   99999   99999.0   99999.0   99999.00 
 116    1:20   100.00  99999.0   99999  99999.0   99999   99999.0   99999.0   99999.00 
 116    1:30   100.00  99999.0   99999  99999.0   99999   99999.0   99999.0   99999.00 
 116    1:40   100.00  99999.0   99999  99999.0   99999   99999.0   99999.0   99999.00 
 116    1:50   100.00  99999.0   99999  99999.0   99999   99999.0   99999.0   99999.00 
 116    2:00   100.00  99999.0   99999  99999.0   99999   99999.0   99999.0   99999.00 
 116    2:10   100.00  99999.0   99999  99999.0   99999   99999.0   99999.0   99999.00 
 116    2:20   100.00  99999.0   99999  99999.0   99999   99999.0   99999.0   99999.00 
 116    2:30   100.00  99999.0   99999  99999.0   99999   99999.0   99999.0   99999.00 
 116    2:40   100.00  99999.0   99999  99999.0   99999   99999.0   99999.0   99999.00 
 116    2:50   100.00  99999.0   99999  99999.0   99999   99999.0   99999.0   99999.00 
 116    3:00   0.00   34.7    75    3.9   200     7.9   848.5    0.00 
 116    3:10   0.00   37.0    67    0.8   173     2.6   848.6    0.00 
 116    3:20   0.00   36.2    69    0.6   269     2.9   848.7    0.00 
 116    3:30   0.00   34.3    74    3.8   296     6.7   848.8    0.00 
 116    3:40   0.00   35.1    73    6.4   292     9.3   848.8    0.00 
 116    3:50   0.00   36.3    70    6.1   298    10.9   848.9    0.00 
 116    4:00   0.00   36.1    71    5.6   287    10.1   848.9    0.00 
 116    4:10   0.00   36.9    68    6.3   307    10.3   849.0    0.00 
 116    4:20   0.00   37.3    67    5.8   304    10.2   849.1    0.00 
 116    4:30   0.00   36.9    69    6.1   289    11.7   849.1    0.00 
 116    4:40   0.00   35.9    73    6.1   266    10.0   849.3    0.00 
 116    4:50   0.00   35.6    74    8.6   281    12.6   849.3    0.00 
 116    5:00   0.00   35.5    75    8.9   285    11.6   849.4    0.00 
 116    5:10   0.00   35.6    75    8.5   284    11.5   849.6    0.00 
 116    5:20   0.00   36.0    74    3.0   252     9.1   849.8    0.00 
 116    5:30   0.00   36.1    72    2.7   169     4.5   850.1    0.00 
 116    5:40   0.00   37.9    66    5.4   118     9.1   850.2    0.00 
 116    5:50   0.00   40.0    58    2.8   256     6.1   850.4    0.00 
 116    6:00   0.00   38.9    63    1.2   247     3.0   850.5    0.00 
 116    6:10   0.00   38.7    64    4.7   179     7.2   850.5    0.00 
 116    6:20   0.00   39.6    62    2.6   310     6.3   850.7    0.00 
 116    6:30   0.00   41.5    62    8.0   311    13.2   850.7    0.00 
 116    6:40   0.00   42.8    58    7.7   329    11.8   850.7    0.00 
 116    6:50   0.00   43.4    55   10.8   330    21.3   850.6    0.00 
 116    7:00   0.00   44.1    54    9.3   344    13.8   850.7    0.00 
 116    7:10   0.00   45.1    52    9.3   357    14.8   850.8    0.00 
 116    7:20   0.00   46.0    48   14.4   351    21.5   851.0    0.00 
 116    7:30   0.00   45.8    46   15.4   348    20.9   850.9    0.00 
 116    7:40   0.00   46.1    46   15.5   343    23.8   850.8    0.00 
 116    7:50   0.00   45.4    47   17.6   337    24.8   850.7    0.00 
 116    8:00   0.00   45.0    46   21.6   335    28.1   850.5    0.00 
 116    8:10   0.00   46.0    42   25.6   336    33.9   850.3    0.00 
 116    8:20   0.00   46.7    38   23.1   342    31.5   850.5    0.00 
 116    8:30   0.00   47.6    35   23.3   346    32.2   850.5    0.00 
 116    8:40   0.00   47.8    33   22.6   348    30.0   850.5    0.00 
 116    8:50   0.00   48.2    34   22.0   351    30.3   850.6    0.00 
 116    9:00   0.00   48.4    34   19.9   353    26.3   850.8    0.00 
 116    9:10   0.00   49.2    34   16.2   355    27.8   851.0    0.00 
 116    9:20   0.00   49.0    34   18.9   349    27.0   851.0    0.00 
 116    9:30   0.00   49.0    34   20.6   344    30.8   850.9    0.00 
 116    9:40   0.00   49.3    32   21.3   341    33.2   851.0    0.00 
 116    9:50   0.00   49.1    33   22.1   337    30.5   850.9    0.00 
 116   10:00   0.00   49.5    33   21.3   339    33.2   851.0    0.00 
 116   10:10   0.00   50.3    32   18.9   343    29.7   851.3    0.00 
 116   10:20   0.00   50.2    32   15.9   349    27.0   851.4    0.00 
 116   10:30   0.00   51.5    32   16.4   344    24.5   851.4    0.00 
 116   10:40   0.00   51.3    31   17.2   346    28.6   851.4    0.00 
 116   10:50   0.00   52.1    29   16.3   354    24.8   851.4    0.00 
 116   11:00   0.00   52.8    27   15.6   353    23.2   851.4    0.00 
 116   11:10   0.00   53.1    26   17.4   352    27.0   851.5    0.00 
 116   11:20   0.00   52.2    27   17.6   346    30.2   851.5    0.00 
 116   11:30   0.00   53.1    25   17.6     3    24.1   851.5    0.00 
 116   11:40   0.00   53.1    25   18.6   354    27.7   851.6    0.00 
 116   11:50   0.00   53.0    26   17.2   350    23.6   851.7    0.00 
 116   12:00   0.00   52.9    28   15.8   341    24.3   851.6    0.00 
 116   12:10   0.00   53.4    25   15.1   347    23.7   851.6    0.00 
 116   12:20   0.00   53.2    24    9.9     9    17.7   851.6    0.00 
 116   12:30   0.00   53.9    24   13.9   355    26.9   851.7    0.00 
 116   12:40   0.00   54.2    23   11.7    12    21.2   851.7    0.00 
 116   12:50   0.00   53.7    23   13.5    16    24.5   851.7    0.00 
 116   13:00   0.00   54.5    23   15.8   360    25.1   851.7    0.00 
 116   13:10   0.00   55.2    21   14.9     5    23.0   851.7    0.00 
 116   13:20   0.00   55.5    21   14.9     6    24.7   851.7    0.00 
 116   13:30   0.00   55.3    22   16.2   358    25.6   851.8    0.00 
 116   13:40   0.00   55.4    23   17.6   349    24.5   851.7    0.00 
 116   13:50   0.00   55.5    22   17.4   358    30.0   851.7    0.00 

Return to Sand Spring Valley graphs page.


Western Regional Climate Center,wrcc@dri.edu